Time;durP1;ratioP1;P1;durP2;ratioP2;P2;SDS_P1;SDS_P2;PMS_P1;PMS_P2;Temp;Humidity;BMP_temperature;BMP_pressure;BME280_temperature;BME280_humidity;BME280_pressure;Samples;Min_cycle;Max_cycle;Signal;HPM_P1;HPM_P2
2021/10/31 00:09:14;;;;;;;2.53;1.30;;;;;;;;;;21091516;28;20105;-66
2021/10/31 00:19:17;;;;;;;4.00;2.08;;;;;;;;;;21088234;28;20052;-66
2021/10/31 00:29:19;;;;;;;2.50;1.45;;;;;;;;;;21089373;28;20059;-67
2021/10/31 00:39:21;;;;;;;3.97;1.80;;;;;;;;;;21088822;28;20118;-66
2021/10/31 00:49:25;;;;;;;4.23;1.60;;;;;;;;;;21088490;28;20048;-66
2021/10/31 00:59:26;;;;;;;3.08;1.80;;;;;;;;;;21087403;28;20060;-63
2021/10/31 01:09:51;;;;;;;2.72;1.27;;;;;;;;;;21086013;28;20091;-67
2021/10/31 01:20:05;;;;;;;3.25;1.42;;;;;;;;;;21086389;28;20098;-66
2021/10/31 01:30:35;;;;;;;4.60;1.90;;;;;;;;;;21084558;28;20052;-66
2021/10/31 01:40:55;;;;;;;3.97;1.58;;;;;;;;;;20825984;28;20050;-63
2021/10/31 01:50:59;;;;;;;2.65;1.70;;;;;;;;;;20824835;28;20053;-64
2021/10/31 02:01:02;;;;;;;5.33;2.43;;;;;;;;;;20824788;28;20053;-65
2021/10/31 02:11:04;;;;;;;5.10;2.10;;;;;;;;;;20883593;28;20048;-63
2021/10/31 02:21:27;;;;;;;4.15;2.20;;;;;;;;;;21082979;28;20075;-64
2021/10/31 02:31:48;;;;;;;7.55;4.05;;;;;;;;;;21082153;28;20050;-65
2021/10/31 02:42:10;;;;;;;6.82;3.72;;;;;;;;;;21081522;28;20101;-63
2021/10/31 02:52:32;;;;;;;8.60;4.13;;;;;;;;;;21080039;28;20056;-65
2021/10/31 03:02:53;;;;;;;8.65;5.60;;;;;;;;;;21078451;28;20056;-64
2021/10/31 03:13:15;;;;;;;8.15;5.50;;;;;;;;;;21078452;28;20132;-66
2021/10/31 03:23:38;;;;;;;8.00;5.97;;;;;;;;;;21077805;28;20106;-66
2021/10/31 03:33:59;;;;;;;8.25;6.32;;;;;;;;;;21077816;28;20051;-63
2021/10/31 03:44:22;;;;;;;9.80;7.40;;;;;;;;;;21078151;28;20451;-62
2021/10/31 03:54:44;;;;;;;15.20;10.45;;;;;;;;;;21088861;28;20044;-58
2021/10/31 04:05:01;;;;;;;13.43;10.65;;;;;;;;;;21092939;28;20048;-62
2021/10/31 04:15:20;;;;;;;16.65;12.15;;;;;;;;;;21091167;28;20181;-60
2021/10/31 04:25:31;;;;;;;15.40;11.10;;;;;;;;;;21091124;28;20048;-58
2021/10/31 04:35:37;;;;;;;18.38;12.57;;;;;;;;;;21089022;28;20048;-57
2021/10/31 04:45:45;;;;;;;15.32;10.15;;;;;;;;;;21092139;28;20385;-58
2021/10/31 04:55:57;;;;;;;15.48;10.32;;;;;;;;;;21087484;28;20444;-58
2021/10/31 05:06:06;;;;;;;14.00;8.90;;;;;;;;;;21086861;28;20098;-58
2021/10/31 05:16:14;;;;;;;11.13;7.32;;;;;;;;;;21086569;28;20404;-57
2021/10/31 05:26:25;;;;;;;9.10;6.25;;;;;;;;;;21086463;28;20062;-57
2021/10/31 05:36:34;;;;;;;10.82;7.90;;;;;;;;;;21085529;28;20442;-58
2021/10/31 05:46:41;;;;;;;10.75;7.00;;;;;;;;;;21083933;28;20052;-57
2021/10/31 05:56:45;;;;;;;9.82;7.25;;;;;;;;;;21082222;28;20142;-57
2021/10/31 06:06:50;;;;;;;9.68;6.30;;;;;;;;;;21083016;28;20051;-60
2021/10/31 06:16:54;;;;;;;8.52;5.32;;;;;;;;;;21079382;28;20048;-58
2021/10/31 06:26:56;;;;;;;5.97;4.63;;;;;;;;;;21081181;28;20063;-63
2021/10/31 06:36:58;;;;;;;8.43;3.75;;;;;;;;;;21080587;28;20055;-66
2021/10/31 06:47:00;;;;;;;5.72;3.20;;;;;;;;;;21079657;28;20490;-64
2021/10/31 06:57:04;;;;;;;3.55;2.47;;;;;;;;;;21078647;28;20060;-66
2021/10/31 07:07:07;;;;;;;5.57;3.40;;;;;;;;;;21078430;28;20054;-59
2021/10/31 07:17:11;;;;;;;2.33;1.80;;;;;;;;;;21078313;28;20468;-61
2021/10/31 07:27:14;;;;;;;4.70;1.60;;;;;;;;;;21087927;28;20044;-60
2021/10/31 07:37:16;;;;;;;3.45;1.40;;;;;;;;;;21095958;28;20048;-62
2021/10/31 07:47:20;;;;;;;3.67;1.40;;;;;;;;;;21091569;28;20044;-62
2021/10/31 07:57:26;;;;;;;3.67;1.60;;;;;;;;;;21091656;28;20101;-58
2021/10/31 08:07:30;;;;;;;4.78;3.00;;;;;;;;;;21091282;28;20052;-66
2021/10/31 08:17:34;;;;;;;;;;;;;;;;;;21091368;28;20052;-64
2021/10/31 08:27:37;;;;;;;3.13;1.40;;;;;;;;;;21089497;28;19928;-65
2021/10/31 08:37:42;;;;;;;3.90;1.42;;;;;;;;;;21087113;28;20051;-60
2021/10/31 08:47:44;;;;;;;2.92;1.40;;;;;;;;;;21087772;28;20473;-62
2021/10/31 08:57:46;;;;;;;4.13;1.33;;;;;;;;;;21087033;28;20091;-55
2021/10/31 09:07:49;;;;;;;2.47;1.10;;;;;;;;;;21089061;28;20043;-56
2021/10/31 09:17:53;;;;;;;4.20;2.20;;;;;;;;;;21086719;28;20373;-66
2021/10/31 09:27:56;;;;;;;3.25;1.52;;;;;;;;;;21085110;28;20079;-61
2021/10/31 09:38:02;;;;;;;4.72;1.40;;;;;;;;;;21084375;28;20051;-66
2021/10/31 09:48:04;;;;;;;3.17;1.58;;;;;;;;;;21084684;28;20051;-60
2021/10/31 09:58:15;;;;;;;3.45;1.70;;;;;;;;;;21081908;28;20071;-57
2021/10/31 10:08:19;;;;;;;3.30;1.40;;;;;;;;;;21116643;28;20040;-63
2021/10/31 10:18:32;;;;;;;3.95;1.30;;;;;;;;;;21085806;28;20131;-65
2021/10/31 10:28:36;;;;;;;4.53;1.45;;;;;;;;;;21081137;28;20126;-66
2021/10/31 10:38:40;;;;;;;4.10;1.50;;;;;;;;;;21079979;28;20437;-64
2021/10/31 10:48:54;;;;;;;5.10;1.80;;;;;;;;;;21084332;28;20059;-60
2021/10/31 10:58:57;;;;;;;5.93;2.00;;;;;;;;;;21090661;28;20052;-65
2021/10/31 11:09:14;;;;;;;5.88;2.15;;;;;;;;;;21080878;28;20052;-66
2021/10/31 11:19:19;;;;;;;5.80;1.90;;;;;;;;;;21077489;28;20138;-58
2021/10/31 11:29:29;;;;;;;6.38;2.42;;;;;;;;;;21077479;28;20048;-57
2021/10/31 11:39:33;;;;;;;4.97;1.83;;;;;;;;;;21076565;28;20411;-59
2021/10/31 11:49:55;;;;;;;9.07;3.75;;;;;;;;;;21075803;28;20056;-57
2021/10/31 12:00:15;;;;;;;5.63;1.60;;;;;;;;;;21076655;28;20067;-57
2021/10/31 12:10:24;;;;;;;6.57;1.90;;;;;;;;;;21077724;28;20096;-58
2021/10/31 12:20:47;;;;;;;3.83;1.70;;;;;;;;;;21090781;28;20055;-64
2021/10/31 12:30:51;;;;;;;3.25;1.40;;;;;;;;;;21090234;28;20056;-57
2021/10/31 12:41:07;;;;;;;8.07;1.90;;;;;;;;;;21088559;28;20083;-58
2021/10/31 12:51:16;;;;;;;5.43;2.15;;;;;;;;;;21086176;28;20052;-59
2021/10/31 13:01:22;;;;;;;6.70;2.53;;;;;;;;;;21086984;28;20122;-64
2021/10/31 13:11:32;;;;;;;4.80;2.20;;;;;;;;;;21086719;28;20504;-57
2021/10/31 13:21:35;;;;;;;6.00;2.53;;;;;;;;;;21085996;28;20048;-58
2021/10/31 13:31:38;;;;;;;7.97;2.30;;;;;;;;;;21084728;28;20081;-57
2021/10/31 13:41:43;;;;;;;7.23;1.90;;;;;;;;;;21084771;28;20080;-58
2021/10/31 13:51:47;;;;;;;3.67;1.80;;;;;;;;;;21083673;28;20769;-62
2021/10/31 14:01:57;;;;;;;3.35;1.48;;;;;;;;;;21082950;28;20048;-65
2021/10/31 14:12:03;;;;;;;6.55;2.00;;;;;;;;;;21081991;28;20056;-62
2021/10/31 14:22:06;;;;;;;5.80;2.75;;;;;;;;;;21081254;28;20052;-63
2021/10/31 14:32:08;;;;;;;7.72;3.03;;;;;;;;;;21078777;28;20052;-65
2021/10/31 14:42:42;;;;;;;4.63;2.45;;;;;;;;;;21079223;28;20044;-63
2021/10/31 14:52:45;;;;;;;4.68;1.58;;;;;;;;;;20820835;28;20053;-63
2021/10/31 15:02:54;;;;;;;2.33;1.30;;;;;;;;;;20819845;28;20056;-57
2021/10/31 15:12:56;;;;;;;3.78;1.80;;;;;;;;;;20820729;28;20441;-63
2021/10/31 15:22:59;;;;;;;5.20;2.35;;;;;;;;;;20910616;28;20051;-64
2021/10/31 15:33:02;;;;;;;7.72;2.00;;;;;;;;;;21077745;28;20055;-62
2021/10/31 15:43:04;;;;;;;6.27;2.10;;;;;;;;;;21077428;28;20047;-58
2021/10/31 15:53:07;;;;;;;6.00;1.90;;;;;;;;;;21092596;28;20094;-59
2021/10/31 16:03:12;;;;;;;;;;;;;;;;;;21091949;28;20079;-59
2021/10/31 16:13:15;;;;;;;3.40;1.63;;;;;;;;;;21091478;28;19920;-61
2021/10/31 16:23:18;;;;;;;3.57;1.50;;;;;;;;;;21090717;28;20044;-58
2021/10/31 16:33:20;;;;;;;5.23;2.57;;;;;;;;;;21089983;28;20044;-58
2021/10/31 16:43:23;;;;;;;3.38;1.65;;;;;;;;;;21088964;28;20048;-58
2021/10/31 16:53:25;;;;;;;5.00;2.42;;;;;;;;;;21085872;28;20052;-57
2021/10/31 17:03:27;;;;;;;3.97;2.40;;;;;;;;;;21082435;28;20060;-58
2021/10/31 17:13:30;;;;;;;3.60;2.30;;;;;;;;;;21085802;28;20048;-58
2021/10/31 17:23:33;;;;;;;3.67;1.70;;;;;;;;;;21084185;28;20066;-58
2021/10/31 17:33:36;;;;;;;3.30;1.83;;;;;;;;;;21084218;28;20048;-61
2021/10/31 17:43:38;;;;;;;4.00;1.90;;;;;;;;;;21082667;28;20492;-58
2021/10/31 17:53:40;;;;;;;4.57;3.47;;;;;;;;;;21082104;28;20067;-64
2021/10/31 18:03:43;;;;;;;4.22;2.10;;;;;;;;;;21081128;28;20055;-60
2021/10/31 18:13:45;;;;;;;4.75;2.13;;;;;;;;;;21079380;28;20095;-63
2021/10/31 18:23:52;;;;;;;4.43;2.70;;;;;;;;;;21079985;28;20080;-61
2021/10/31 18:33:54;;;;;;;2.20;1.60;;;;;;;;;;21079744;28;20052;-66
2021/10/31 18:43:58;;;;;;;2.63;1.50;;;;;;;;;;21079581;28;20052;-65
2021/10/31 18:54:00;;;;;;;3.42;1.77;;;;;;;;;;21078017;28;20417;-60
2021/10/31 19:04:03;;;;;;;4.90;2.25;;;;;;;;;;21077290;28;20097;-67
2021/10/31 19:14:06;;;;;;;1.67;1.20;;;;;;;;;;21078715;28;20446;-63
2021/10/31 19:24:09;;;;;;;3.75;2.33;;;;;;;;;;21089078;28;20119;-59
2021/10/31 19:34:11;;;;;;;8.77;4.80;;;;;;;;;;21094292;28;20052;-60
2021/10/31 19:44:14;;;;;;;3.33;1.60;;;;;;;;;;21094370;28;20047;-63
2021/10/31 19:54:16;;;;;;;5.68;3.42;;;;;;;;;;21093114;28;20431;-60
2021/10/31 20:04:19;;;;;;;2.97;1.73;;;;;;;;;;21091780;28;20052;-60
2021/10/31 20:14:24;;;;;;;4.13;2.20;;;;;;;;;;21091480;28;20044;-62
2021/10/31 20:24:26;;;;;;;2.90;1.52;;;;;;;;;;21089089;28;20051;-58
2021/10/31 20:34:28;;;;;;;4.03;1.38;;;;;;;;;;21088688;28;20084;-59
2021/10/31 20:44:30;;;;;;;1.88;1.10;;;;;;;;;;21088344;28;20044;-58
2021/10/31 20:54:33;;;;;;;2.58;1.10;;;;;;;;;;21087633;28;20541;-59
2021/10/31 21:04:35;;;;;;;2.00;1.08;;;;;;;;;;21085499;28;20048;-57
2021/10/31 21:14:37;;;;;;;2.20;1.13;;;;;;;;;;21085040;28;20044;-58
2021/10/31 21:24:40;;;;;;;4.80;2.45;;;;;;;;;;21085740;28;20415;-61
2021/10/31 21:34:45;;;;;;;2.70;1.60;;;;;;;;;;21085683;28;20051;-60
2021/10/31 21:44:47;;;;;;;3.78;2.33;;;;;;;;;;21091177;28;20059;-58
2021/10/31 21:54:51;;;;;;;6.68;3.53;;;;;;;;;;21093513;28;20097;-63
2021/10/31 22:04:53;;;;;;;;;;;;;;;;;;21083052;28;20052;-63
2021/10/31 22:14:56;;;;;;;9.85;2.97;;;;;;;;;;21082631;28;19930;-65
2021/10/31 22:24:58;;;;;;;8.35;4.10;;;;;;;;;;21082176;28;20048;-63
2021/10/31 22:35:01;;;;;;;11.25;6.55;;;;;;;;;;21080486;28;20097;-61
2021/10/31 22:45:03;;;;;;;7.28;2.70;;;;;;;;;;21080435;28;20055;-63
2021/10/31 22:55:06;;;;;;;7.18;4.07;;;;;;;;;;21079080;28;20511;-64
2021/10/31 23:05:07;;;;;;;4.57;1.88;;;;;;;;;;21079946;28;20488;-63
2021/10/31 23:15:10;;;;;;;2.80;1.25;;;;;;;;;;21078643;28;20051;-65
2021/10/31 23:25:12;;;;;;;2.45;0.93;;;;;;;;;;21078494;28;20044;-64
2021/10/31 23:35:14;;;;;;;4.80;2.10;;;;;;;;;;21077834;28;20084;-63
2021/10/31 23:45:16;;;;;;;1.60;0.88;;;;;;;;;;21076048;28;20101;-63
2021/10/31 23:55:19;;;;;;;3.13;1.10;;;;;;;;;;21077006;28;20052;-66
